createdAt,value
2019-03-09T00:00:52.282Z,6.33
2019-03-09T00:03:20.978Z,6.53
2019-03-09T00:05:49.541Z,6.90
2019-03-09T00:08:18.153Z,7.73
2019-03-09T00:11:06.268Z,7.90
2019-03-09T00:13:34.848Z,7.43
2019-03-09T00:16:03.546Z,7.97
2019-03-09T00:18:33.672Z,8.90
2019-03-09T00:21:05.435Z,8.13
2019-03-09T00:23:45.255Z,8.00
2019-03-09T00:26:22.181Z,6.70
2019-03-09T00:29:22.002Z,8.00
2019-03-09T00:31:59.727Z,9.77
2019-03-09T00:34:28.307Z,8.90
2019-03-09T00:37:16.697Z,9.83
2019-03-09T00:39:45.285Z,9.43
2019-03-09T00:42:13.902Z,8.63
2019-03-09T00:44:46.849Z,8.10
2019-03-09T00:47:31.487Z,9.07
2019-03-09T00:50:08.982Z,10.33
2019-03-09T00:52:41.266Z,10.03
2019-03-09T00:55:16.440Z,9.97
2019-03-09T00:57:45.404Z,11.30
2019-03-09T01:00:17.076Z,8.90
2019-03-09T01:02:45.672Z,8.07
2019-03-09T01:05:14.358Z,8.63
2019-03-09T01:07:42.976Z,8.00
2019-03-09T01:10:13.776Z,7.73
2019-03-09T01:12:42.419Z,8.47
2019-03-09T01:15:11.108Z,7.60
2019-03-09T01:17:39.692Z,8.07
2019-03-09T01:20:10.848Z,7.07
2019-03-09T01:22:39.438Z,7.90
2019-03-09T01:25:08.473Z,12.57
2019-03-09T01:27:37.084Z,11.40
2019-03-09T01:30:06.225Z,11.07
2019-03-09T01:32:34.835Z,13.10
2019-03-09T01:35:03.507Z,12.63
2019-03-09T01:37:32.153Z,11.10
2019-03-09T01:40:00.761Z,10.87
2019-03-09T01:42:29.331Z,8.77
2019-03-09T01:44:57.958Z,9.00
2019-03-09T01:47:26.656Z,6.30
2019-03-09T01:49:55.353Z,6.30
2019-03-09T01:52:24.032Z,8.60
2019-03-09T01:54:52.701Z,6.80
2019-03-09T01:57:21.303Z,7.83
2019-03-09T01:59:49.924Z,7.37
2019-03-09T02:02:20.693Z,5.63
2019-03-09T02:04:49.307Z,5.37
2019-03-09T02:07:18.366Z,4.70
2019-03-09T02:09:47.015Z,5.03
2019-03-09T02:12:18.007Z,5.30
2019-03-09T02:14:46.912Z,5.43
2019-03-09T02:17:15.750Z,4.93
2019-03-09T02:19:44.332Z,5.17
2019-03-09T02:22:12.907Z,4.50
2019-03-09T02:24:41.628Z,5.97
2019-03-09T02:27:10.223Z,4.43
2019-03-09T02:29:38.824Z,4.97
2019-03-09T02:32:07.406Z,5.33
2019-03-09T02:34:36.101Z,4.73
2019-03-09T02:37:04.860Z,4.93
2019-03-09T02:39:48.311Z,4.90
2019-03-09T02:42:17.095Z,4.97
2019-03-09T02:44:45.703Z,4.50
2019-03-09T02:47:15.832Z,4.67
2019-03-09T02:49:44.465Z,3.83
2019-03-09T02:52:32.500Z,5.23
2019-03-09T02:55:01.137Z,4.73
2019-03-09T02:57:29.794Z,4.87
2019-03-09T02:59:58.387Z,4.20
2019-03-09T03:02:31.317Z,3.90
2019-03-09T03:05:00.051Z,4.10
2019-03-09T03:07:28.735Z,4.37
2019-03-09T03:09:57.480Z,4.47
2019-03-09T03:12:26.079Z,4.33
2019-03-09T03:14:54.676Z,4.60
2019-03-09T03:17:23.259Z,3.73
2019-03-09T03:19:51.996Z,3.90
2019-03-09T03:22:20.585Z,4.60
2019-03-09T03:24:49.179Z,3.53
2019-03-09T03:27:17.772Z,4.80
2019-03-09T03:29:46.342Z,4.43
2019-03-09T03:32:16.206Z,3.77
2019-03-09T03:34:44.800Z,3.20
2019-03-09T03:37:32.705Z,2.63
2019-03-09T03:40:01.312Z,3.80
2019-03-09T03:42:29.884Z,4.10
2019-03-09T03:44:58.495Z,3.77
2019-03-09T03:47:27.087Z,3.70
2019-03-09T03:49:55.669Z,3.30
2019-03-09T03:52:24.266Z,3.03
2019-03-09T03:54:52.988Z,3.50
2019-03-09T03:57:21.581Z,2.67
2019-03-09T03:59:50.245Z,2.73
2019-03-09T04:02:18.889Z,3.30
2019-03-09T04:04:47.442Z,2.50
2019-03-09T04:07:16.091Z,2.93
2019-03-09T04:09:44.692Z,3.20
2019-03-09T04:12:13.294Z,3.27
2019-03-09T04:14:41.889Z,2.77
2019-03-09T04:17:10.458Z,2.97
2019-03-09T04:19:39.066Z,3.13
2019-03-09T04:22:07.622Z,2.93
2019-03-09T04:24:38.620Z,3.20
2019-03-09T04:27:07.240Z,4.13
2019-03-09T04:29:35.823Z,3.37
2019-03-09T04:32:07.582Z,3.70
2019-03-09T04:34:36.168Z,3.40
2019-03-09T04:37:04.968Z,3.43
2019-03-09T04:39:33.577Z,3.37
2019-03-09T04:42:02.160Z,3.40
2019-03-09T04:44:30.778Z,2.90
2019-03-09T04:46:59.403Z,3.17
2019-03-09T04:49:28.151Z,2.73
2019-03-09T04:51:56.752Z,3.07
2019-03-09T04:54:25.324Z,3.57
2019-03-09T04:56:55.431Z,3.87
2019-03-09T04:59:24.076Z,4.37
2019-03-09T05:01:52.735Z,3.83
2019-03-09T05:04:50.301Z,3.53
2019-03-09T05:07:30.865Z,3.47
2019-03-09T05:10:33.583Z,3.23
2019-03-09T05:13:10.707Z,3.33
2019-03-09T05:15:39.297Z,3.50
2019-03-09T05:18:07.873Z,3.17
2019-03-09T05:20:36.477Z,4.10
2019-03-09T05:23:05.152Z,3.20
2019-03-09T05:25:33.739Z,3.73
2019-03-09T05:28:02.370Z,4.00
2019-03-09T05:30:44.449Z,3.30
2019-03-09T05:33:13.070Z,3.57
2019-03-09T05:35:41.656Z,3.20
2019-03-09T05:38:10.357Z,3.33
2019-03-09T05:40:38.938Z,3.17
2019-03-09T05:43:07.539Z,3.93
2019-03-09T05:45:36.136Z,3.90
2019-03-09T05:48:04.760Z,5.17
2019-03-09T05:50:33.452Z,4.00
2019-03-09T05:53:13.570Z,5.20
2019-03-09T05:55:42.165Z,4.13
2019-03-09T05:58:10.759Z,4.17
2019-03-09T06:00:40.349Z,4.90
2019-03-09T06:03:28.251Z,4.67
2019-03-09T06:06:05.699Z,5.60
2019-03-09T06:08:34.276Z,4.40
2019-03-09T06:11:02.973Z,4.13
2019-03-09T06:13:31.565Z,3.40
2019-03-09T06:16:00.156Z,3.70
2019-03-09T06:18:48.355Z,4.20
2019-03-09T06:21:17.133Z,3.20
2019-03-09T06:23:45.808Z,5.13
2019-03-09T06:26:22.444Z,4.03
2019-03-09T06:28:51.077Z,4.23
2019-03-09T06:31:39.033Z,4.30
2019-03-09T06:34:07.622Z,3.83
2019-03-09T06:37:04.672Z,4.70
2019-03-09T06:39:42.625Z,4.73
2019-03-09T06:42:20.438Z,4.60
2019-03-09T06:44:49.043Z,4.00
2019-03-09T06:47:17.685Z,5.73
2019-03-09T06:49:46.364Z,4.63
2019-03-09T06:52:16.146Z,4.17
2019-03-09T06:54:44.723Z,5.17
2019-03-09T06:57:14.181Z,4.20
2019-03-09T06:59:42.876Z,5.97
2019-03-09T07:02:12.068Z,5.17
2019-03-09T07:04:40.671Z,4.90
2019-03-09T07:07:09.259Z,5.00
2019-03-09T07:09:37.833Z,4.73
2019-03-09T07:12:06.515Z,4.87
2019-03-09T07:15:10.860Z,4.13
2019-03-09T07:17:39.688Z,4.40
2019-03-09T07:20:12.621Z,4.57
2019-03-09T07:22:39.843Z,6.07
2019-03-09T07:25:08.463Z,4.50
2019-03-09T07:27:37.129Z,5.63
2019-03-09T07:30:09.992Z,4.57
2019-03-09T07:32:38.587Z,4.83
2019-03-09T07:35:07.987Z,4.80
2019-03-09T07:37:37.089Z,4.93
2019-03-09T07:40:06.070Z,5.17
2019-03-09T07:42:34.660Z,5.27
2019-03-09T07:45:22.576Z,6.20
2019-03-09T07:47:51.518Z,6.07
2019-03-09T07:50:20.136Z,5.07
2019-03-09T07:52:48.865Z,6.60
2019-03-09T07:55:18.749Z,6.10
2019-03-09T07:57:47.367Z,5.00
2019-03-09T08:00:17.652Z,5.50
2019-03-09T08:02:46.264Z,5.07
2019-03-09T08:05:15.106Z,4.87
2019-03-09T08:07:43.798Z,4.63
2019-03-09T08:10:31.752Z,6.07
2019-03-09T08:13:00.346Z,5.10
2019-03-09T08:15:28.945Z,6.70
2019-03-09T08:17:57.528Z,5.37
2019-03-09T08:20:31.732Z,5.43
2019-03-09T08:23:00.347Z,5.57
2019-03-09T08:25:28.964Z,5.67
2019-03-09T08:27:57.602Z,5.00
2019-03-09T08:30:45.598Z,5.57
2019-03-09T08:33:14.258Z,5.47
2019-03-09T08:35:42.890Z,5.20
2019-03-09T08:38:11.525Z,5.87
2019-03-09T08:40:42.629Z,5.50
2019-03-09T08:43:10.725Z,4.73
2019-03-09T08:45:58.644Z,6.47
2019-03-09T08:48:27.294Z,4.53
2019-03-09T08:50:55.896Z,5.53
2019-03-09T08:53:24.572Z,5.37
2019-03-09T08:55:53.229Z,4.90
2019-03-09T08:58:21.855Z,5.70
2019-03-09T09:00:50.542Z,5.77
2019-03-09T09:03:19.311Z,5.13
2019-03-09T09:05:48.234Z,4.83
2019-03-09T09:08:18.400Z,5.53
2019-03-09T09:10:46.996Z,4.70
2019-03-09T09:13:16.109Z,4.80
2019-03-09T09:15:44.797Z,4.27
2019-03-09T09:18:13.457Z,5.47
2019-03-09T09:20:46.081Z,5.73
2019-03-09T09:23:17.472Z,5.50
2019-03-09T09:25:46.063Z,5.20
2019-03-09T09:28:15.605Z,6.80
2019-03-09T09:31:03.874Z,5.63
2019-03-09T09:33:32.793Z,6.13
2019-03-09T09:36:01.417Z,6.30
2019-03-09T09:38:30.096Z,7.03
2019-03-09T09:41:08.667Z,6.40
2019-03-09T09:43:37.552Z,6.17
2019-03-09T09:46:06.195Z,6.93
2019-03-09T09:48:34.816Z,7.50
2019-03-09T09:51:05.857Z,7.53
2019-03-09T09:53:34.473Z,7.13
2019-03-09T09:56:03.156Z,6.70
2019-03-09T09:58:31.817Z,8.27
2019-03-09T10:01:03.052Z,7.97
2019-03-09T10:03:31.525Z,9.03
2019-03-09T10:06:00.123Z,7.47
2019-03-09T10:08:28.723Z,9.00
2019-03-09T10:10:57.333Z,7.40
2019-03-09T10:13:25.996Z,8.80
2019-03-09T10:15:54.592Z,8.20
2019-03-09T10:18:23.155Z,9.23
2019-03-09T10:20:51.743Z,9.50
2019-03-09T10:23:20.405Z,8.27
2019-03-09T10:25:49.096Z,10.07
2019-03-09T10:28:17.713Z,8.53
2019-03-09T10:30:46.275Z,8.23
2019-03-09T10:33:15.013Z,9.07
2019-03-09T10:35:43.628Z,9.30
2019-03-09T10:38:12.215Z,8.43
2019-03-09T10:40:40.852Z,9.13
2019-03-09T10:43:09.518Z,10.23
2019-03-09T10:45:38.145Z,9.90
2019-03-09T10:48:06.743Z,8.33
2019-03-09T10:50:35.335Z,8.90
2019-03-09T10:53:06.429Z,11.37
2019-03-09T10:55:35.377Z,8.37
2019-03-09T10:58:05.338Z,8.43
2019-03-09T11:00:34.421Z,8.27
2019-03-09T11:03:03.089Z,10.30
2019-03-09T11:05:34.921Z,10.93
2019-03-09T11:08:03.655Z,9.63
2019-03-09T11:10:32.287Z,8.93
2019-03-09T11:13:03.505Z,11.03
2019-03-09T11:15:33.092Z,9.67
2019-03-09T11:18:04.659Z,7.97
2019-03-09T11:20:35.705Z,9.43
2019-03-09T11:23:04.637Z,9.07
2019-03-09T11:25:34.477Z,9.87
2019-03-09T11:28:08.257Z,10.10
2019-03-09T11:30:36.953Z,9.43
2019-03-09T11:33:05.619Z,9.60
2019-03-09T11:35:34.333Z,10.63
2019-03-09T11:38:05.860Z,10.70
2019-03-09T11:40:34.462Z,12.40
2019-03-09T11:43:06.286Z,10.37
2019-03-09T11:45:34.915Z,10.00
2019-03-09T11:48:03.638Z,10.83
2019-03-09T11:50:35.000Z,12.13
2019-03-09T11:53:15.235Z,12.70
2019-03-09T11:55:39.905Z,10.77
2019-03-09T11:58:08.793Z,10.87
2019-03-09T12:00:38.420Z,11.93
2019-03-09T12:03:07.357Z,11.97
2019-03-09T12:05:36.052Z,10.03
2019-03-09T12:08:04.909Z,10.73
2019-03-09T12:10:33.592Z,12.47
2019-03-09T12:13:03.249Z,11.27
2019-03-09T12:15:32.258Z,12.30
2019-03-09T12:18:00.879Z,14.63
2019-03-09T12:20:29.853Z,13.50
2019-03-09T12:23:13.392Z,14.17
2019-03-09T12:25:42.049Z,14.33
2019-03-09T12:28:10.665Z,13.23
2019-03-09T12:30:39.244Z,15.10
2019-03-09T12:33:07.851Z,16.07
2019-03-09T12:35:36.457Z,17.13
2019-03-09T12:38:05.098Z,14.93
2019-03-09T12:40:33.700Z,18.60
2019-03-09T12:43:03.979Z,17.57
2019-03-09T12:45:34.775Z,13.07
2019-03-09T12:48:03.581Z,14.60
2019-03-09T12:50:32.184Z,17.50
2019-03-09T12:53:00.781Z,15.57
2019-03-09T12:55:29.394Z,14.17
2019-03-09T12:57:58.870Z,15.83
2019-03-09T13:00:27.471Z,15.17
2019-03-09T13:02:56.082Z,16.13
2019-03-09T13:05:24.721Z,15.17
2019-03-09T13:07:53.349Z,16.23
2019-03-09T13:10:22.009Z,15.50
2019-03-09T13:12:50.679Z,15.73
2019-03-09T13:15:19.289Z,16.63
2019-03-09T13:17:47.948Z,16.03
2019-03-09T13:20:16.826Z,16.83
2019-03-09T13:22:45.416Z,18.20
2019-03-09T13:25:15.394Z,15.33
2019-03-09T13:27:43.985Z,16.87
2019-03-09T13:30:15.004Z,16.87
2019-03-09T13:32:44.997Z,15.27
2019-03-09T13:35:13.739Z,19.03
2019-03-09T13:37:42.325Z,18.63
2019-03-09T13:40:11.233Z,17.57
2019-03-09T13:42:39.883Z,17.10
2019-03-09T13:45:09.524Z,15.77
2019-03-09T13:47:38.296Z,15.53
2019-03-09T13:50:07.881Z,13.87
2019-03-09T13:52:36.890Z,14.10
2019-03-09T13:55:06.064Z,15.63
2019-03-09T13:57:34.752Z,12.67
2019-03-09T14:00:03.561Z,14.57
2019-03-09T14:02:32.337Z,16.77
2019-03-09T14:05:01.053Z,14.63
2019-03-09T14:07:29.752Z,15.10
2019-03-09T14:09:58.584Z,12.57
2019-03-09T14:12:27.207Z,15.70
2019-03-09T14:14:55.786Z,14.00
2019-03-09T14:17:24.411Z,11.67
2019-03-09T14:19:53.127Z,12.10
2019-03-09T14:22:21.742Z,14.77
2019-03-09T14:24:50.350Z,13.77
2019-03-09T14:27:19.107Z,8.63
2019-03-09T14:29:47.896Z,6.37
2019-03-09T14:32:16.561Z,4.40
2019-03-09T14:34:45.184Z,2.77
2019-03-09T14:37:16.693Z,3.63
2019-03-09T14:39:45.321Z,2.57
2019-03-09T14:42:14.276Z,3.67
2019-03-09T14:44:42.949Z,2.77
2019-03-09T14:47:11.556Z,3.93
2019-03-09T14:49:40.510Z,3.47
2019-03-09T14:52:09.113Z,4.90
2019-03-09T14:54:37.703Z,3.20
2019-03-09T14:57:06.370Z,4.53
2019-03-09T14:59:35.472Z,3.47
2019-03-09T15:02:06.196Z,4.30
2019-03-09T15:04:34.784Z,3.47
2019-03-09T15:07:07.168Z,4.17
2019-03-09T15:09:36.055Z,4.77
2019-03-09T15:12:04.646Z,4.00
2019-03-09T15:14:33.291Z,4.00
2019-03-09T15:17:02.013Z,4.50
2019-03-09T15:19:49.919Z,4.30
2019-03-09T15:22:18.537Z,4.37
2019-03-09T15:24:47.133Z,4.97
2019-03-09T15:27:15.800Z,5.43
2019-03-09T15:29:44.745Z,5.63
2019-03-09T15:32:13.353Z,5.13
2019-03-09T15:34:41.945Z,6.43
2019-03-09T15:37:10.536Z,6.10
2019-03-09T15:39:39.110Z,9.47
2019-03-09T15:42:07.693Z,5.47
2019-03-09T15:44:36.434Z,6.17
2019-03-09T15:47:05.994Z,6.37
2019-03-09T15:49:34.773Z,5.67
2019-03-09T15:52:06.184Z,5.73
2019-03-09T15:54:34.910Z,6.33
2019-03-09T15:57:03.530Z,5.73
2019-03-09T15:59:32.131Z,4.93
2019-03-09T16:02:08.123Z,6.47
2019-03-09T16:04:36.911Z,3.77
2019-03-09T16:07:06.891Z,5.20
2019-03-09T16:09:35.488Z,3.93
2019-03-09T16:12:07.840Z,5.57
2019-03-09T16:14:36.447Z,5.10
2019-03-09T16:17:07.060Z,6.77
2019-03-09T16:19:36.901Z,4.30
2019-03-09T16:22:05.624Z,4.37
2019-03-09T16:24:34.256Z,4.40
2019-03-09T16:27:02.929Z,4.33
2019-03-09T16:29:31.547Z,4.93
2019-03-09T16:32:00.128Z,4.43
2019-03-09T16:34:29.042Z,4.13
2019-03-09T16:37:00.080Z,4.63
2019-03-09T16:39:30.452Z,3.90
2019-03-09T16:41:59.039Z,4.50
2019-03-09T16:44:27.662Z,4.27
2019-03-09T16:46:56.253Z,3.33
2019-03-09T16:49:24.889Z,4.73
2019-03-09T16:51:53.478Z,4.60
2019-03-09T16:54:22.053Z,4.73
2019-03-09T16:56:50.638Z,4.57
2019-03-09T16:59:19.237Z,4.30
2019-03-09T17:01:47.819Z,5.10
2019-03-09T17:04:18.752Z,4.30
2019-03-09T17:06:47.338Z,4.37
2019-03-09T17:09:18.739Z,4.70
2019-03-09T17:11:47.415Z,5.07
2019-03-09T17:14:17.284Z,4.30
2019-03-09T17:16:46.863Z,3.80
2019-03-09T17:19:17.339Z,5.00
2019-03-09T17:21:46.081Z,5.07
2019-03-09T17:24:17.519Z,5.43
2019-03-09T17:26:46.237Z,5.90
2019-03-09T17:29:17.949Z,4.90
2019-03-09T17:31:46.567Z,5.43
2019-03-09T17:34:36.110Z,5.63
2019-03-09T17:37:04.729Z,5.60
2019-03-09T17:39:36.675Z,4.73
2019-03-09T17:42:05.299Z,4.27
2019-03-09T17:44:33.919Z,5.83
2019-03-09T17:47:02.543Z,4.73
2019-03-09T17:49:32.390Z,3.77
2019-03-09T17:52:00.960Z,3.70
2019-03-09T17:54:29.525Z,3.97
2019-03-09T17:56:58.168Z,3.87
2019-03-09T17:59:26.850Z,4.40
2019-03-09T18:01:55.490Z,4.97
2019-03-09T18:04:24.305Z,4.17
2019-03-09T18:06:53.456Z,4.43
2019-03-09T18:09:22.099Z,3.87
2019-03-09T18:11:50.787Z,4.20
2019-03-09T18:14:19.834Z,3.77
2019-03-09T18:16:52.648Z,4.20
2019-03-09T18:19:20.536Z,4.07
2019-03-09T18:22:08.458Z,3.13
2019-03-09T18:24:37.079Z,3.57
2019-03-09T18:27:05.790Z,3.93
2019-03-09T18:29:34.408Z,4.00
2019-03-09T18:32:04.736Z,3.33
2019-03-09T18:34:36.250Z,3.27
2019-03-09T18:37:04.925Z,4.37
2019-03-09T18:39:33.696Z,3.57
2019-03-09T18:42:02.451Z,4.67
2019-03-09T18:44:31.409Z,3.67
2019-03-09T18:47:00.069Z,3.33
2019-03-09T18:49:28.810Z,3.83
2019-03-09T18:51:57.672Z,4.47
2019-03-09T18:54:26.470Z,4.57
2019-03-09T18:56:55.071Z,4.27
2019-03-09T18:59:23.659Z,3.87
2019-03-09T19:01:52.236Z,4.27
2019-03-09T19:04:20.844Z,4.53
2019-03-09T19:06:49.460Z,5.23
2019-03-09T19:09:18.105Z,4.30
2019-03-09T19:11:46.921Z,4.03
2019-03-09T19:14:18.644Z,3.80
2019-03-09T19:16:47.253Z,3.93
2019-03-09T19:19:18.880Z,4.73
2019-03-09T19:21:47.527Z,4.67
2019-03-09T19:24:16.487Z,4.17
2019-03-09T19:26:45.217Z,3.90
2019-03-09T19:29:14.012Z,3.97
2019-03-09T19:31:42.712Z,4.23
2019-03-09T19:34:11.409Z,4.23
2019-03-09T19:36:40.005Z,4.13
2019-03-09T19:39:08.840Z,4.47
2019-03-09T19:41:37.433Z,5.87
2019-03-09T19:44:06.032Z,4.47
2019-03-09T19:46:34.620Z,4.23
2019-03-09T19:49:05.499Z,4.30
2019-03-09T19:51:34.655Z,4.60
2019-03-09T19:54:04.587Z,4.73
2019-03-09T19:56:33.223Z,4.30
2019-03-09T19:59:01.859Z,4.07
2019-03-09T20:01:30.442Z,4.27
2019-03-09T20:03:59.068Z,4.63
2019-03-09T20:06:47.022Z,4.47
2019-03-09T20:09:18.838Z,4.13
2019-03-09T20:11:47.502Z,3.90
2019-03-09T20:14:17.898Z,3.90
2019-03-09T20:16:46.731Z,3.97
2019-03-09T20:22:15.409Z,5.03
2019-03-09T20:24:44.187Z,3.57
2019-03-09T20:27:15.281Z,4.57
2019-03-09T20:29:43.908Z,4.90
2019-03-09T20:32:12.516Z,4.40
2019-03-09T20:34:41.188Z,4.37
2019-03-09T20:37:09.857Z,4.40
2019-03-09T20:39:38.785Z,4.93
2019-03-09T20:42:07.425Z,4.87
2019-03-09T20:44:36.064Z,4.40
2019-03-09T20:47:04.655Z,4.20
2019-03-09T20:49:33.396Z,5.07
2019-03-09T20:52:02.330Z,4.40
2019-03-09T20:54:50.326Z,4.60
2019-03-09T20:57:19.069Z,4.63
2019-03-09T20:59:47.689Z,5.43
2019-03-09T21:02:18.724Z,5.13
2019-03-09T21:04:47.457Z,5.17
2019-03-09T21:07:17.638Z,5.33
2019-03-09T21:09:48.030Z,5.00
2019-03-09T21:12:17.041Z,4.40
2019-03-09T21:14:45.620Z,5.10
2019-03-09T21:17:18.585Z,5.00
2019-03-09T21:19:47.255Z,5.90
2019-03-09T21:22:15.941Z,5.80
2019-03-09T21:24:44.738Z,5.43
2019-03-09T21:27:14.413Z,5.40
2019-03-09T21:29:43.221Z,4.67
2019-03-09T21:32:17.781Z,5.07
2019-03-09T21:34:46.519Z,4.30
2019-03-09T21:37:22.208Z,4.87
2019-03-09T21:39:50.873Z,4.50
2019-03-09T21:42:19.496Z,4.23
2019-03-09T21:44:48.170Z,4.93
2019-03-09T21:47:18.314Z,4.20
2019-03-09T21:49:46.967Z,5.17
2019-03-09T21:52:17.756Z,5.87
2019-03-09T21:54:46.441Z,4.73
2019-03-09T21:57:16.401Z,5.27
2019-03-09T22:00:04.781Z,4.03
2019-03-09T22:02:33.425Z,5.13
2019-03-09T22:05:02.051Z,4.77
2019-03-09T22:07:30.720Z,4.57
2019-03-09T22:09:59.309Z,4.30
2019-03-09T22:12:27.930Z,4.80
2019-03-09T22:14:56.553Z,5.53
2019-03-09T22:17:25.165Z,4.37
2019-03-09T22:19:53.744Z,5.07
2019-03-09T22:22:22.352Z,4.80
2019-03-09T22:24:50.949Z,5.73
2019-03-09T22:27:19.544Z,4.50
2019-03-09T22:29:48.133Z,5.10
2019-03-09T22:32:19.620Z,5.40
2019-03-09T22:34:48.437Z,4.63
2019-03-09T22:37:20.313Z,5.10
2019-03-09T22:39:48.904Z,4.60
2019-03-09T22:42:17.492Z,4.13
2019-03-09T22:44:46.378Z,6.57
2019-03-09T22:47:16.617Z,4.63
2019-03-09T22:49:45.229Z,4.93
2019-03-09T22:52:14.364Z,4.97
2019-03-09T22:54:42.953Z,4.73
2019-03-09T22:57:11.577Z,5.73
2019-03-09T22:59:40.156Z,4.43
2019-03-09T23:02:09.096Z,5.03
2019-03-09T23:04:38.905Z,4.40
2019-03-09T23:07:07.493Z,4.30
2019-03-09T23:09:55.421Z,5.20
2019-03-09T23:12:24.046Z,4.47
2019-03-09T23:14:52.656Z,5.10
2019-03-09T23:17:21.372Z,4.33
2019-03-09T23:19:50.024Z,4.67
2019-03-09T23:22:18.643Z,4.43
2019-03-09T23:24:47.321Z,4.73
2019-03-09T23:27:18.307Z,3.83
2019-03-09T23:29:46.896Z,4.80
2019-03-09T23:32:18.604Z,4.67
2019-03-09T23:34:47.229Z,5.73
2019-03-09T23:37:18.915Z,4.50
2019-03-09T23:39:47.574Z,5.07
2019-03-09T23:42:17.481Z,4.63
2019-03-09T23:44:46.059Z,5.70
2019-03-09T23:47:17.688Z,5.17
2019-03-09T23:49:46.276Z,5.53
2019-03-09T23:52:15.007Z,5.67
2019-03-09T23:54:43.636Z,4.63
2019-03-09T23:57:31.584Z,5.17
